createdAt,value
2023-01-31T00:01:41.681Z,4.07
2023-01-31T00:04:12.024Z,3.97
2023-01-31T00:06:42.132Z,4.30
2023-01-31T00:09:11.122Z,4.50
2023-01-31T00:11:39.130Z,3.80
2023-01-31T00:14:08.318Z,3.75
2023-01-31T00:16:36.102Z,3.65
2023-01-31T00:19:04.456Z,3.88
2023-01-31T00:21:32.324Z,4.07
2023-01-31T00:24:00.335Z,4.03
2023-01-31T00:26:34.995Z,3.47
2023-01-31T00:29:04.211Z,3.90
2023-01-31T00:31:33.192Z,3.50
2023-01-31T00:34:00.898Z,3.78
2023-01-31T00:36:31.839Z,3.45
2023-01-31T00:39:01.695Z,3.58
2023-01-31T00:41:30.183Z,3.50
2023-01-31T00:43:57.823Z,3.90
2023-01-31T00:46:25.456Z,4.18
2023-01-31T00:48:52.683Z,3.50
2023-01-31T00:51:21.220Z,4.13
2023-01-31T00:53:49.405Z,3.75
2023-01-31T00:56:20.304Z,3.40
2023-01-31T00:58:47.396Z,3.40
2023-01-31T01:01:26.440Z,3.75
2023-01-31T01:03:54.430Z,3.65
2023-01-31T01:06:22.151Z,3.90
2023-01-31T01:08:49.309Z,3.63
2023-01-31T01:11:22.566Z,4.20
2023-01-31T01:13:50.863Z,3.90
2023-01-31T01:16:21.759Z,3.65
2023-01-31T01:18:50.632Z,4.68
2023-01-31T01:21:20.924Z,4.32
2023-01-31T01:23:56.238Z,3.67
2023-01-31T01:26:26.327Z,4.38
2023-01-31T01:28:55.116Z,3.10
2023-01-31T01:31:30.768Z,3.53
2023-01-31T01:34:03.184Z,4.20
2023-01-31T01:36:34.604Z,3.65
2023-01-31T01:39:04.522Z,3.72
2023-01-31T01:41:33.867Z,3.40
2023-01-31T01:44:03.045Z,3.65
2023-01-31T01:46:34.496Z,3.90
2023-01-31T01:49:39.565Z,4.15
2023-01-31T01:52:10.234Z,3.03
2023-01-31T01:54:46.870Z,3.63
2023-01-31T01:57:18.347Z,4.22
2023-01-31T01:59:56.041Z,3.55
2023-01-31T02:02:23.108Z,3.70
2023-01-31T02:04:52.408Z,3.67
2023-01-31T02:07:19.902Z,3.78
2023-01-31T02:10:08.741Z,4.22
2023-01-31T02:12:36.604Z,3.80
2023-01-31T02:15:04.244Z,3.85
2023-01-31T02:17:31.290Z,3.35
2023-01-31T02:20:10.009Z,3.88
2023-01-31T02:22:43.101Z,2.88
2023-01-31T02:25:15.988Z,3.47
2023-01-31T02:27:43.165Z,3.78
2023-01-31T02:30:12.917Z,3.42
2023-01-31T02:33:01.803Z,3.33
2023-01-31T02:35:42.241Z,3.90
2023-01-31T02:39:07.552Z,3.13
2023-01-31T02:41:50.739Z,3.42
2023-01-31T02:44:42.151Z,3.30
2023-01-31T02:47:28.189Z,3.80
2023-01-31T02:50:03.012Z,3.33
2023-01-31T02:52:53.409Z,3.70
2023-01-31T02:55:48.735Z,4.28
2023-01-31T02:58:18.216Z,3.72
2023-01-31T03:00:47.532Z,3.72
2023-01-31T03:03:27.914Z,3.50
2023-01-31T03:06:14.575Z,3.28
2023-01-31T03:08:45.402Z,3.42
2023-01-31T03:11:12.572Z,3.50
2023-01-31T03:14:05.451Z,3.95
2023-01-31T03:16:59.322Z,3.22
2023-01-31T03:19:49.609Z,3.92
2023-01-31T03:22:24.230Z,3.75
2023-01-31T03:24:52.348Z,3.38
2023-01-31T03:27:21.308Z,4.32
2023-01-31T03:29:49.371Z,3.75
2023-01-31T03:32:23.839Z,3.90
2023-01-31T03:34:52.516Z,3.40
2023-01-31T03:37:29.680Z,3.20
2023-01-31T03:40:08.097Z,3.58
2023-01-31T03:42:35.087Z,3.97
2023-01-31T03:45:07.775Z,3.35
2023-01-31T03:47:44.146Z,3.67
2023-01-31T03:50:23.919Z,3.55
2023-01-31T03:53:09.895Z,3.75
2023-01-31T03:55:42.980Z,3.50
2023-01-31T03:58:13.091Z,3.83
2023-01-31T04:00:43.069Z,3.70
2023-01-31T04:03:36.218Z,3.63
2023-01-31T04:06:03.488Z,3.55
2023-01-31T04:08:32.676Z,4.25
2023-01-31T04:11:03.341Z,3.78
2023-01-31T04:13:30.555Z,4.15
2023-01-31T04:15:57.967Z,3.72
2023-01-31T04:18:25.135Z,3.25
2023-01-31T04:20:52.167Z,3.70
2023-01-31T04:23:20.078Z,4.07
2023-01-31T04:25:47.642Z,3.80
2023-01-31T04:28:14.710Z,4.00
2023-01-31T04:30:41.740Z,3.80
2023-01-31T04:33:09.384Z,3.78
2023-01-31T04:35:39.601Z,4.03
2023-01-31T04:38:06.748Z,3.25
2023-01-31T04:40:34.175Z,3.75
2023-01-31T04:43:01.204Z,4.13
2023-01-31T04:45:28.341Z,3.17
2023-01-31T04:47:55.332Z,2.97
2023-01-31T04:50:22.343Z,3.17
2023-01-31T04:52:52.883Z,3.33
2023-01-31T04:55:20.354Z,3.03
2023-01-31T04:57:47.693Z,2.97
2023-01-31T05:00:15.109Z,3.10
2023-01-31T05:02:42.181Z,3.97
2023-01-31T05:05:09.804Z,3.88
2023-01-31T05:07:36.815Z,2.90
2023-01-31T05:10:04.302Z,3.63
2023-01-31T05:12:31.667Z,3.45
2023-01-31T05:14:59.020Z,4.13
2023-01-31T05:17:26.498Z,3.65
2023-01-31T05:19:53.631Z,3.13
2023-01-31T05:22:22.788Z,3.92
2023-01-31T05:24:51.558Z,3.72
2023-01-31T05:27:19.799Z,3.40
2023-01-31T05:29:47.549Z,3.58
2023-01-31T05:32:14.909Z,4.60
2023-01-31T05:34:41.982Z,4.07
2023-01-31T05:37:09.003Z,3.63
2023-01-31T05:39:36.720Z,4.10
2023-01-31T05:42:03.824Z,4.45
2023-01-31T05:44:33.344Z,4.30
2023-01-31T05:47:01.405Z,4.35
2023-01-31T05:49:33.694Z,4.40
2023-01-31T05:52:01.891Z,3.78
2023-01-31T05:54:29.251Z,3.63
2023-01-31T05:56:56.302Z,4.10
2023-01-31T05:59:23.554Z,4.50
2023-01-31T06:01:50.814Z,5.25
2023-01-31T06:04:17.984Z,4.15
2023-01-31T06:06:45.570Z,4.00
2023-01-31T06:09:12.814Z,4.93
2023-01-31T06:11:39.939Z,4.88
2023-01-31T06:14:07.235Z,4.75
2023-01-31T06:16:34.321Z,4.75
2023-01-31T06:19:02.377Z,4.78
2023-01-31T06:21:29.747Z,4.75
2023-01-31T06:23:57.274Z,4.93
2023-01-31T06:26:24.943Z,5.28
2023-01-31T06:28:52.413Z,5.63
2023-01-31T06:31:20.080Z,5.40
2023-01-31T06:33:48.221Z,5.68
2023-01-31T06:36:18.926Z,5.03
2023-01-31T06:38:50.623Z,5.15
2023-01-31T06:41:18.609Z,5.00
2023-01-31T06:43:45.684Z,4.65
2023-01-31T06:46:12.828Z,5.45
2023-01-31T06:48:40.032Z,5.65
2023-01-31T06:51:07.197Z,5.65
2023-01-31T06:53:34.215Z,5.35
2023-01-31T06:56:01.625Z,5.22
2023-01-31T06:58:28.800Z,5.88
2023-01-31T07:00:55.891Z,6.35
2023-01-31T07:03:22.930Z,5.80
2023-01-31T07:05:50.758Z,6.28
2023-01-31T07:08:17.968Z,5.38
2023-01-31T07:10:45.030Z,5.70
2023-01-31T07:13:12.129Z,6.00
2023-01-31T07:15:39.419Z,4.82
2023-01-31T07:18:06.619Z,5.50
2023-01-31T07:20:33.893Z,4.53
2023-01-31T07:23:01.173Z,4.97
2023-01-31T07:25:32.746Z,4.88
2023-01-31T07:28:00.400Z,5.00
2023-01-31T07:30:28.288Z,4.63
2023-01-31T07:32:55.629Z,5.20
2023-01-31T07:35:22.857Z,4.95
2023-01-31T07:37:52.933Z,5.93
2023-01-31T07:40:20.090Z,4.93
2023-01-31T07:42:47.269Z,6.00
2023-01-31T07:45:23.431Z,5.32
2023-01-31T07:47:51.817Z,5.07
2023-01-31T07:50:19.798Z,4.75
2023-01-31T07:52:49.344Z,5.18
2023-01-31T07:55:16.700Z,5.13
2023-01-31T07:57:43.787Z,5.20
2023-01-31T08:00:32.020Z,5.53
2023-01-31T08:03:17.774Z,5.30
2023-01-31T08:05:48.492Z,5.05
2023-01-31T08:08:15.635Z,4.95
2023-01-31T08:10:42.746Z,5.43
2023-01-31T08:13:12.430Z,5.00
2023-01-31T08:15:39.467Z,4.95
2023-01-31T08:18:06.782Z,4.45
2023-01-31T08:20:34.376Z,5.07
2023-01-31T08:23:01.464Z,4.88
2023-01-31T08:25:32.197Z,4.68
2023-01-31T08:28:00.352Z,5.57
2023-01-31T08:30:28.421Z,5.03
2023-01-31T08:32:56.573Z,4.95
2023-01-31T08:35:25.263Z,5.10
2023-01-31T08:37:55.293Z,5.05
2023-01-31T08:40:25.930Z,5.80
2023-01-31T08:43:02.958Z,5.15
2023-01-31T08:45:31.408Z,8.25
2023-01-31T08:48:00.214Z,6.85
2023-01-31T08:50:30.337Z,4.53
2023-01-31T08:53:00.324Z,14.57
2023-01-31T08:55:29.201Z,5.40
2023-01-31T08:58:00.122Z,4.95
2023-01-31T09:00:27.819Z,4.60
2023-01-31T09:03:00.056Z,4.53
2023-01-31T09:05:29.048Z,4.85
2023-01-31T09:07:56.375Z,4.70
2023-01-31T09:10:25.397Z,4.57
2023-01-31T09:12:52.461Z,3.80
2023-01-31T09:15:19.831Z,4.10
2023-01-31T09:17:47.106Z,4.28
2023-01-31T09:20:14.471Z,3.67
2023-01-31T09:22:41.524Z,4.10
2023-01-31T09:25:09.599Z,3.53
2023-01-31T09:27:38.660Z,4.03
2023-01-31T09:30:07.813Z,3.38
2023-01-31T09:32:35.464Z,3.75
2023-01-31T09:35:02.895Z,3.40
2023-01-31T09:37:33.728Z,3.30
2023-01-31T09:40:00.823Z,3.13
2023-01-31T09:42:48.542Z,3.08
2023-01-31T09:45:37.680Z,3.40
2023-01-31T09:48:06.739Z,3.47
2023-01-31T09:50:46.582Z,3.20
2023-01-31T09:53:21.762Z,3.42
2023-01-31T09:56:21.330Z,3.50
2023-01-31T09:58:54.639Z,3.38
2023-01-31T10:01:45.093Z,3.17
2023-01-31T10:04:24.727Z,3.42
2023-01-31T10:07:26.278Z,3.58
2023-01-31T10:10:22.053Z,3.65
2023-01-31T10:12:58.073Z,3.65
2023-01-31T10:15:41.497Z,3.53
2023-01-31T10:18:26.206Z,2.85
2023-01-31T10:20:58.803Z,3.85
2023-01-31T10:23:46.007Z,4.15
2023-01-31T10:26:23.181Z,3.67
2023-01-31T10:29:05.356Z,3.95
2023-01-31T10:31:36.167Z,4.22
2023-01-31T10:34:26.300Z,3.63
2023-01-31T10:37:02.105Z,4.07
2023-01-31T10:39:36.944Z,3.78
2023-01-31T10:42:22.034Z,4.80
2023-01-31T10:45:03.995Z,4.57
2023-01-31T10:47:45.271Z,4.18
2023-01-31T10:50:16.412Z,3.90
2023-01-31T10:53:07.486Z,4.47
2023-01-31T10:55:56.764Z,3.67
2023-01-31T10:58:24.578Z,3.60
2023-01-31T11:00:52.282Z,4.22
2023-01-31T11:03:20.521Z,4.47
2023-01-31T11:05:53.395Z,4.00
2023-01-31T11:08:45.927Z,4.60
2023-01-31T11:11:22.814Z,4.95
2023-01-31T11:14:03.768Z,4.63
2023-01-31T11:16:34.437Z,3.72
2023-01-31T11:19:05.427Z,4.68
2023-01-31T11:21:35.933Z,4.07
2023-01-31T11:24:06.164Z,4.18
2023-01-31T11:26:39.109Z,3.95
2023-01-31T11:29:19.591Z,3.25
2023-01-31T11:31:47.905Z,4.13
2023-01-31T11:34:33.977Z,5.40
2023-01-31T11:37:15.900Z,4.90
2023-01-31T11:39:54.152Z,3.30
2023-01-31T11:42:21.240Z,3.72
2023-01-31T11:45:19.346Z,4.13
2023-01-31T11:47:52.239Z,3.95
2023-01-31T11:50:24.949Z,3.30
2023-01-31T11:53:02.041Z,4.13
2023-01-31T11:55:39.655Z,4.60
2023-01-31T11:58:32.731Z,4.05
2023-01-31T12:01:02.224Z,4.13
2023-01-31T12:03:30.867Z,4.47
2023-01-31T12:06:09.611Z,3.40
2023-01-31T12:08:42.080Z,4.47
2023-01-31T12:11:21.506Z,4.32
2023-01-31T12:13:49.909Z,4.20
2023-01-31T12:16:24.513Z,3.70
2023-01-31T12:19:09.569Z,4.43
2023-01-31T12:22:03.144Z,4.18
2023-01-31T12:24:52.373Z,3.80
2023-01-31T12:27:48.972Z,4.03
2023-01-31T12:30:22.326Z,4.25
2023-01-31T12:33:27.857Z,3.77
2023-01-31T12:36:04.053Z,3.90
2023-01-31T12:38:33.939Z,4.10
2023-01-31T12:41:12.939Z,4.05
2023-01-31T12:43:52.057Z,4.50
2023-01-31T12:46:29.201Z,3.63
2023-01-31T12:49:15.264Z,3.63
2023-01-31T12:52:04.867Z,3.63
2023-01-31T12:54:52.136Z,3.30
2023-01-31T12:57:40.435Z,3.53
2023-01-31T13:00:55.931Z,2.83
2023-01-31T13:09:10.749Z,3.30
2023-01-31T13:12:01.870Z,2.90
2023-01-31T13:14:32.726Z,3.20
2023-01-31T13:17:06.221Z,3.00
2023-01-31T13:19:52.639Z,2.80
2023-01-31T13:22:27.085Z,3.72
2023-01-31T13:25:05.861Z,3.45
2023-01-31T13:27:39.277Z,3.42
2023-01-31T13:30:11.709Z,2.88
2023-01-31T13:32:43.450Z,3.33
2023-01-31T13:35:28.974Z,3.92
2023-01-31T13:38:00.979Z,4.25
2023-01-31T13:40:32.953Z,4.10
2023-01-31T13:43:08.730Z,4.60
2023-01-31T13:46:01.521Z,4.75
2023-01-31T13:48:42.513Z,4.47
2023-01-31T13:51:19.313Z,4.63
2023-01-31T13:53:51.605Z,4.95
2023-01-31T13:56:26.973Z,4.93
2023-01-31T13:58:56.301Z,5.20
2023-01-31T14:01:25.769Z,4.60
2023-01-31T14:04:12.055Z,5.45
2023-01-31T14:06:57.376Z,5.10
2023-01-31T14:09:28.789Z,5.43
2023-01-31T14:11:58.491Z,5.57
2023-01-31T14:14:37.728Z,7.03
2023-01-31T14:17:29.175Z,6.38
2023-01-31T14:20:03.996Z,6.85
2023-01-31T14:22:36.643Z,7.70
2023-01-31T14:25:09.755Z,7.32
2023-01-31T14:27:45.020Z,9.95
2023-01-31T14:30:28.155Z,8.65
2023-01-31T14:33:08.949Z,8.63
2023-01-31T14:35:38.008Z,8.60
2023-01-31T14:38:05.135Z,10.57
2023-01-31T14:40:40.940Z,10.05
2023-01-31T14:43:37.137Z,10.90
2023-01-31T14:46:10.221Z,9.70
2023-01-31T14:48:54.266Z,13.48
2023-01-31T14:51:53.591Z,11.10
2023-01-31T14:54:23.799Z,11.98
2023-01-31T14:57:22.147Z,12.45
2023-01-31T14:59:54.800Z,13.77
2023-01-31T15:02:36.451Z,12.32
2023-01-31T15:05:22.141Z,12.65
2023-01-31T15:08:14.144Z,16.60
2023-01-31T15:11:41.380Z,14.07
2023-01-31T15:14:34.269Z,13.57
2023-01-31T15:17:09.887Z,13.45
2023-01-31T15:19:51.039Z,14.90
2023-01-31T15:22:20.871Z,13.00
2023-01-31T15:24:52.788Z,13.20
2023-01-31T15:27:28.700Z,13.23
2023-01-31T15:29:58.847Z,14.88
2023-01-31T15:32:45.922Z,13.98
2023-01-31T15:35:31.928Z,14.95
2023-01-31T15:38:10.365Z,13.70
2023-01-31T15:40:37.439Z,13.52
2023-01-31T15:43:17.728Z,13.80
2023-01-31T15:45:45.065Z,14.13
2023-01-31T15:48:15.130Z,13.45
2023-01-31T15:50:54.446Z,15.65
2023-01-31T15:53:24.132Z,14.00
2023-01-31T15:55:54.413Z,13.85
2023-01-31T15:58:25.000Z,15.13
2023-01-31T16:01:01.177Z,13.38
2023-01-31T16:03:31.917Z,13.80
2023-01-31T16:06:00.491Z,13.07
2023-01-31T16:08:34.226Z,13.60
2023-01-31T16:11:05.014Z,14.15
2023-01-31T16:13:35.529Z,14.77
2023-01-31T16:16:14.128Z,15.02
2023-01-31T16:18:45.462Z,14.18
2023-01-31T16:21:41.709Z,13.43
2023-01-31T16:24:15.358Z,14.02
2023-01-31T16:27:09.561Z,14.77
2023-01-31T16:29:46.396Z,15.18
2023-01-31T16:32:33.079Z,14.63
2023-01-31T16:35:19.788Z,15.20
2023-01-31T16:37:47.803Z,14.90
2023-01-31T16:40:17.922Z,15.50
2023-01-31T16:42:45.374Z,14.48
2023-01-31T16:45:32.177Z,14.90
2023-01-31T16:48:21.780Z,14.40
2023-01-31T16:50:50.476Z,14.48
2023-01-31T16:53:32.754Z,15.45
2023-01-31T16:56:15.067Z,15.75
2023-01-31T16:58:51.473Z,15.98
2023-01-31T17:01:29.096Z,15.80
2023-01-31T17:04:21.568Z,16.50
2023-01-31T17:07:00.321Z,17.00
2023-01-31T17:09:28.592Z,16.23
2023-01-31T17:11:56.514Z,16.30
2023-01-31T17:14:23.974Z,16.48
2023-01-31T17:16:53.615Z,16.45
2023-01-31T17:19:21.174Z,16.48
2023-01-31T17:21:50.321Z,16.55
2023-01-31T17:24:20.015Z,17.98
2023-01-31T17:26:47.274Z,17.45
2023-01-31T17:29:14.451Z,16.73
2023-01-31T17:31:42.394Z,17.15
2023-01-31T17:34:16.521Z,18.58
2023-01-31T17:36:46.538Z,17.77
2023-01-31T17:39:13.640Z,17.23
2023-01-31T17:41:41.595Z,18.05
2023-01-31T17:44:13.271Z,18.88
2023-01-31T17:46:40.710Z,18.10
2023-01-31T17:49:07.794Z,18.48
2023-01-31T17:51:35.063Z,19.00
2023-01-31T17:54:02.160Z,20.35
2023-01-31T17:56:29.218Z,18.25
2023-01-31T17:58:56.287Z,19.50
2023-01-31T18:01:24.807Z,19.58
2023-01-31T18:03:51.948Z,19.05
2023-01-31T18:06:19.056Z,18.63
2023-01-31T18:08:46.178Z,17.35
2023-01-31T18:11:18.750Z,17.65
2023-01-31T18:13:45.958Z,17.70
2023-01-31T18:16:20.956Z,18.25
2023-01-31T18:18:48.658Z,18.80
2023-01-31T18:21:18.236Z,17.55
2023-01-31T18:23:52.997Z,17.30
2023-01-31T18:26:21.174Z,17.70
2023-01-31T18:28:51.968Z,19.17
2023-01-31T18:31:21.784Z,17.45
2023-01-31T18:33:49.141Z,18.83
2023-01-31T18:36:19.693Z,17.25
2023-01-31T18:38:49.108Z,18.23
2023-01-31T18:41:19.106Z,17.73
2023-01-31T18:43:46.702Z,18.10
2023-01-31T18:46:13.996Z,17.60
2023-01-31T18:48:42.072Z,17.85
2023-01-31T18:51:13.121Z,18.27
2023-01-31T18:53:45.489Z,19.30
2023-01-31T18:56:17.313Z,18.83
2023-01-31T18:58:45.471Z,18.65
2023-01-31T19:01:28.718Z,18.45
2023-01-31T19:03:58.403Z,18.25
2023-01-31T19:06:35.393Z,17.38
2023-01-31T19:09:04.325Z,17.80
2023-01-31T19:11:32.153Z,18.42
2023-01-31T19:13:59.228Z,18.88
2023-01-31T19:16:28.378Z,18.95
2023-01-31T19:18:57.242Z,18.42
2023-01-31T19:21:26.978Z,19.92
2023-01-31T19:23:56.952Z,19.35
2023-01-31T19:26:24.187Z,20.00
2023-01-31T19:28:51.720Z,20.08
2023-01-31T19:31:21.987Z,19.00
2023-01-31T19:33:51.134Z,26.10
2023-01-31T19:36:24.230Z,17.92
2023-01-31T19:38:51.843Z,19.60
2023-01-31T19:41:21.566Z,18.52
2023-01-31T19:43:50.667Z,17.90
2023-01-31T19:46:19.869Z,18.05
2023-01-31T19:48:47.028Z,18.00
2023-01-31T19:51:16.757Z,17.60
2023-01-31T19:53:45.332Z,16.50
2023-01-31T19:56:13.606Z,16.98
2023-01-31T19:58:41.093Z,17.02
2023-01-31T20:01:15.376Z,16.75
2023-01-31T20:03:42.990Z,16.10
2023-01-31T20:06:18.520Z,14.82
2023-01-31T20:08:59.705Z,15.02
2023-01-31T20:11:31.324Z,14.20
2023-01-31T20:13:58.740Z,13.32
2023-01-31T20:16:26.705Z,12.50
2023-01-31T20:18:55.657Z,10.35
2023-01-31T20:21:23.838Z,9.95
2023-01-31T20:23:51.088Z,10.50
2023-01-31T20:26:24.188Z,10.52
2023-01-31T20:28:52.195Z,9.33
2023-01-31T20:31:20.387Z,9.32
2023-01-31T20:33:47.501Z,9.35
2023-01-31T20:36:14.635Z,10.02
2023-01-31T20:38:41.923Z,6.43
2023-01-31T20:41:09.401Z,4.78
2023-01-31T20:43:37.318Z,4.13
2023-01-31T20:46:10.406Z,3.30
2023-01-31T20:48:39.271Z,2.80
2023-01-31T20:51:09.270Z,3.47
2023-01-31T20:53:36.309Z,2.72
2023-01-31T20:56:06.349Z,3.58
2023-01-31T20:58:35.410Z,2.80
2023-01-31T21:01:05.593Z,3.03
2023-01-31T21:03:33.973Z,3.33
2023-01-31T21:06:01.871Z,3.10
2023-01-31T21:08:29.643Z,3.42
2023-01-31T21:10:59.625Z,3.08
2023-01-31T21:13:32.211Z,2.92
2023-01-31T21:16:04.817Z,3.03
2023-01-31T21:18:35.335Z,2.92
2023-01-31T21:21:25.489Z,2.95
2023-01-31T21:23:59.647Z,2.63
2023-01-31T21:28:54.375Z,3.15
2023-01-31T21:31:21.672Z,3.42
2023-01-31T21:33:51.081Z,3.80
2023-01-31T21:36:22.534Z,4.35
2023-01-31T21:38:49.779Z,5.20
2023-01-31T21:41:36.582Z,5.47
2023-01-31T21:44:03.995Z,6.25
2023-01-31T21:46:31.163Z,6.35
2023-01-31T21:49:01.146Z,7.25
2023-01-31T21:51:28.836Z,7.13
2023-01-31T21:53:56.448Z,9.13
2023-01-31T21:56:26.181Z,7.97
2023-01-31T21:58:54.894Z,8.05
2023-01-31T22:01:31.165Z,7.53
2023-01-31T22:03:59.351Z,7.85
2023-01-31T22:06:31.393Z,8.32
2023-01-31T22:08:59.995Z,9.25
2023-01-31T22:11:28.675Z,11.07
2023-01-31T22:13:56.423Z,9.32
2023-01-31T22:16:23.740Z,10.45
2023-01-31T22:18:51.664Z,10.85
2023-01-31T22:21:27.222Z,11.35
2023-01-31T22:23:57.402Z,11.68
2023-01-31T22:26:29.557Z,12.00
2023-01-31T22:28:59.390Z,12.82
2023-01-31T22:31:27.467Z,12.60
2023-01-31T22:33:56.327Z,14.90
2023-01-31T22:36:26.436Z,13.95
2023-01-31T22:38:54.828Z,13.43
2023-01-31T22:41:22.288Z,14.70
2023-01-31T22:43:51.152Z,16.58
2023-01-31T22:46:24.040Z,15.50
2023-01-31T22:48:52.668Z,16.25
2023-01-31T22:51:22.438Z,16.45
2023-01-31T22:53:50.606Z,15.75
2023-01-31T22:56:23.492Z,17.15
2023-01-31T22:58:56.231Z,16.58
2023-01-31T23:01:24.657Z,16.23
2023-01-31T23:03:55.555Z,16.10
2023-01-31T23:06:22.681Z,17.30
2023-01-31T23:08:49.893Z,17.25
2023-01-31T23:11:17.455Z,16.52
2023-01-31T23:13:45.323Z,16.83
2023-01-31T23:16:20.875Z,17.80
2023-01-31T23:18:48.073Z,16.88
2023-01-31T23:21:18.972Z,15.85
2023-01-31T23:23:46.386Z,16.95
2023-01-31T23:26:13.761Z,16.70
2023-01-31T23:28:41.485Z,16.38
2023-01-31T23:31:08.673Z,15.20
2023-01-31T23:33:35.993Z,16.88
2023-01-31T23:36:03.505Z,14.93
2023-01-31T23:38:30.574Z,14.90
2023-01-31T23:40:57.657Z,13.88
2023-01-31T23:43:24.751Z,13.38
2023-01-31T23:45:51.981Z,11.57
2023-01-31T23:48:19.188Z,12.43
2023-01-31T23:50:46.200Z,11.90
2023-01-31T23:53:13.287Z,11.68
2023-01-31T23:55:40.430Z,11.68
2023-01-31T23:58:07.745Z,12.55
